createdAt,value
2018-05-27T00:01:10.403Z,53.98
2018-05-27T00:03:38.372Z,54.17
2018-05-27T00:06:06.340Z,54.33
2018-05-27T00:08:34.208Z,53.48
2018-05-27T00:11:01.970Z,52.98
2018-05-27T00:13:29.838Z,52.24
2018-05-27T00:15:57.556Z,51.06
2018-05-27T00:18:25.367Z,51.01
2018-05-27T00:20:53.130Z,53.22
2018-05-27T00:23:20.896Z,54.30
2018-05-27T00:25:48.599Z,53.81
2018-05-27T00:28:16.321Z,53.56
2018-05-27T00:30:44.858Z,53.94
2018-05-27T00:33:12.670Z,54.05
2018-05-27T00:35:40.539Z,55.20
2018-05-27T00:38:08.198Z,55.93
2018-05-27T00:40:35.859Z,56.21
2018-05-27T00:43:03.568Z,56.28
2018-05-27T00:45:31.385Z,56.71
2018-05-27T00:47:59.154Z,56.64
2018-05-27T00:50:27.022Z,56.79
2018-05-27T00:52:54.786Z,56.88
2018-05-27T00:55:22.501Z,56.50
2018-05-27T00:57:50.320Z,56.18
2018-05-27T01:00:17.977Z,54.44
2018-05-27T01:02:45.746Z,55.00
2018-05-27T01:05:13.509Z,54.58
2018-05-27T01:07:41.212Z,55.28
2018-05-27T01:10:09.035Z,55.01
2018-05-27T01:12:36.799Z,56.24
2018-05-27T01:15:04.564Z,54.46
2018-05-27T01:17:32.279Z,55.24
2018-05-27T01:20:00.095Z,55.34
2018-05-27T01:22:27.819Z,55.54
2018-05-27T01:24:55.520Z,56.77
2018-05-27T01:27:23.284Z,57.51
2018-05-27T01:29:50.945Z,57.42
2018-05-27T01:32:18.656Z,57.45
2018-05-27T01:34:46.580Z,57.11
2018-05-27T01:37:14.346Z,55.89
2018-05-27T01:39:42.108Z,56.75
2018-05-27T01:42:09.827Z,55.82
2018-05-27T01:44:37.593Z,56.11
2018-05-27T01:47:05.401Z,56.26
2018-05-27T01:49:33.181Z,55.85
2018-05-27T01:52:01.040Z,55.98
2018-05-27T01:54:28.858Z,55.32
2018-05-27T01:56:56.673Z,54.68
2018-05-27T01:59:24.494Z,55.37
2018-05-27T02:01:52.301Z,56.24
2018-05-27T02:04:20.004Z,58.09
2018-05-27T02:06:47.824Z,59.10
2018-05-27T02:09:15.583Z,58.98
2018-05-27T02:11:43.304Z,58.92
2018-05-27T02:14:11.122Z,58.50
2018-05-27T02:16:38.837Z,57.79
2018-05-27T02:19:06.648Z,57.75
2018-05-27T02:21:34.413Z,57.71
2018-05-27T02:24:02.281Z,57.08
2018-05-27T02:26:30.007Z,56.73
2018-05-27T02:28:57.747Z,56.47
2018-05-27T02:31:25.373Z,57.00
2018-05-27T02:33:53.081Z,56.95
2018-05-27T02:36:20.792Z,57.38
2018-05-27T02:38:48.446Z,57.41
2018-05-27T02:41:16.182Z,57.67
2018-05-27T02:43:43.925Z,57.30
2018-05-27T02:46:11.742Z,57.81
2018-05-27T02:48:39.515Z,57.30
2018-05-27T02:51:07.171Z,58.17
2018-05-27T02:53:34.943Z,57.92
2018-05-27T02:56:02.812Z,58.61
2018-05-27T02:58:30.677Z,58.89
2018-05-27T03:00:58.439Z,58.96
2018-05-27T03:03:26.204Z,58.98
2018-05-27T03:05:53.927Z,59.15
2018-05-27T03:08:21.630Z,59.00
2018-05-27T03:10:49.386Z,59.44
2018-05-27T03:13:17.165Z,58.99
2018-05-27T03:15:44.928Z,59.12
2018-05-27T03:18:12.686Z,58.38
2018-05-27T03:20:40.453Z,58.84
2018-05-27T03:23:08.217Z,59.42
2018-05-27T03:25:35.981Z,59.25
2018-05-27T03:28:03.747Z,59.01
2018-05-27T03:30:31.471Z,59.33
2018-05-27T03:32:59.277Z,59.52
2018-05-27T03:35:27.041Z,59.03
2018-05-27T03:37:54.811Z,59.41
2018-05-27T03:40:22.665Z,59.74
2018-05-27T03:42:50.436Z,59.69
2018-05-27T03:45:18.303Z,59.52
2018-05-27T03:47:46.068Z,59.23
2018-05-27T03:50:13.847Z,59.38
2018-05-27T03:52:41.492Z,59.21
2018-05-27T03:55:09.217Z,59.62
2018-05-27T03:57:37.026Z,59.77
2018-05-27T04:00:04.725Z,59.62
2018-05-27T04:02:32.553Z,59.59
2018-05-27T04:05:12.196Z,59.49
2018-05-27T04:07:51.940Z,59.84
2018-05-27T04:10:19.705Z,61.17
2018-05-27T04:12:47.473Z,60.65
2018-05-27T04:15:15.200Z,60.15
2018-05-27T04:17:42.998Z,59.98
2018-05-27T04:20:10.712Z,59.62
2018-05-27T04:22:38.427Z,60.06
2018-05-27T04:25:06.190Z,59.80
2018-05-27T04:27:33.954Z,60.13
2018-05-27T04:30:01.623Z,60.54
2018-05-27T04:32:29.278Z,59.42
2018-05-27T04:34:57.042Z,59.69
2018-05-27T04:37:24.809Z,59.18
2018-05-27T04:39:52.545Z,59.06
2018-05-27T04:42:20.234Z,58.82
2018-05-27T04:44:47.990Z,58.83
2018-05-27T04:47:15.721Z,58.73
2018-05-27T04:49:43.425Z,58.74
2018-05-27T04:52:11.087Z,58.86
2018-05-27T04:54:38.852Z,58.93
2018-05-27T04:57:06.620Z,58.65
2018-05-27T04:59:34.277Z,58.06
2018-05-27T05:02:02.044Z,57.33
2018-05-27T05:04:29.809Z,56.27
2018-05-27T05:06:57.675Z,56.95
2018-05-27T05:09:25.413Z,55.77
2018-05-27T05:11:53.204Z,54.51
2018-05-27T05:14:20.907Z,53.77
2018-05-27T05:16:48.630Z,53.36
2018-05-27T05:19:16.392Z,53.06
2018-05-27T05:21:44.160Z,52.38
2018-05-27T05:24:11.821Z,53.15
2018-05-27T05:26:39.587Z,53.29
2018-05-27T05:29:07.310Z,52.40
2018-05-27T05:31:35.116Z,50.91
2018-05-27T05:34:02.819Z,50.63
2018-05-27T05:36:30.636Z,48.98
2018-05-27T05:38:58.353Z,48.74
2018-05-27T05:41:26.379Z,49.56
2018-05-27T05:43:54.147Z,48.81
2018-05-27T05:46:21.909Z,48.11
2018-05-27T05:48:49.673Z,47.85
2018-05-27T05:51:17.545Z,47.58
2018-05-27T05:53:45.305Z,48.19
2018-05-27T05:56:13.123Z,47.51
2018-05-27T05:58:40.939Z,47.64
2018-05-27T06:01:08.710Z,48.23
2018-05-27T06:03:36.357Z,46.68
2018-05-27T06:06:04.128Z,46.60
2018-05-27T06:08:31.891Z,46.44
2018-05-27T06:10:59.758Z,46.28
2018-05-27T06:13:27.469Z,45.28
2018-05-27T06:15:55.289Z,44.37
2018-05-27T06:18:22.949Z,44.28
2018-05-27T06:20:50.668Z,43.00
2018-05-27T06:23:18.481Z,42.84
2018-05-27T06:25:46.223Z,42.00
2018-05-27T06:28:14.008Z,42.15
2018-05-27T06:30:41.671Z,42.75
2018-05-27T06:33:09.537Z,43.28
2018-05-27T06:35:37.245Z,41.99
2018-05-27T06:38:04.963Z,41.71
2018-05-27T06:40:32.680Z,40.89
2018-05-27T06:43:00.391Z,41.26
2018-05-27T06:45:28.059Z,40.56
2018-05-27T06:47:55.919Z,41.87
2018-05-27T06:50:23.622Z,40.23
2018-05-27T06:52:51.344Z,40.89
2018-05-27T06:55:19.111Z,39.24
2018-05-27T06:57:46.824Z,39.27
2018-05-27T07:00:14.536Z,40.53
2018-05-27T07:02:42.198Z,38.66
2018-05-27T07:05:09.965Z,39.45
2018-05-27T07:07:37.832Z,38.43
2018-05-27T07:10:05.585Z,41.15
2018-05-27T07:12:33.360Z,40.13
2018-05-27T07:15:01.021Z,39.75
2018-05-27T07:17:28.785Z,37.62
2018-05-27T07:19:56.551Z,38.54
2018-05-27T07:22:24.423Z,40.49
2018-05-27T07:24:52.081Z,38.52
2018-05-27T07:27:19.805Z,38.45
2018-05-27T07:29:47.499Z,37.78
2018-05-27T07:32:15.294Z,37.16
2018-05-27T07:34:43.137Z,37.51
2018-05-27T07:37:10.904Z,37.49
2018-05-27T07:39:38.665Z,36.34
2018-05-27T07:42:06.341Z,36.18
2018-05-27T07:44:34.196Z,35.84
2018-05-27T07:47:01.961Z,34.27
2018-05-27T07:49:29.684Z,33.77
2018-05-27T07:51:57.489Z,35.13
2018-05-27T07:54:25.356Z,34.56
2018-05-27T07:56:53.121Z,33.99
2018-05-27T07:59:20.783Z,34.26
2018-05-27T08:01:48.547Z,35.31
2018-05-27T08:04:16.312Z,34.43
2018-05-27T08:06:44.081Z,35.95
2018-05-27T08:09:11.973Z,35.91
2018-05-27T08:11:39.665Z,37.62
2018-05-27T08:14:07.473Z,36.84
2018-05-27T08:16:35.239Z,37.43
2018-05-27T08:19:03.106Z,37.23
2018-05-27T08:21:30.971Z,36.76
2018-05-27T08:23:58.737Z,35.87
2018-05-27T08:26:26.604Z,36.09
2018-05-27T08:28:54.310Z,36.46
2018-05-27T08:31:22.134Z,37.66
2018-05-27T08:33:49.899Z,35.91
2018-05-27T08:36:17.770Z,35.06
2018-05-27T08:38:45.476Z,35.01
2018-05-27T08:41:13.299Z,35.37
2018-05-27T08:43:40.957Z,36.76
2018-05-27T08:46:08.722Z,37.91
2018-05-27T08:48:36.485Z,35.75
2018-05-27T08:51:04.250Z,35.72
2018-05-27T08:53:32.114Z,36.56
2018-05-27T08:55:59.799Z,36.28
2018-05-27T08:58:27.544Z,36.85
2018-05-27T09:00:55.305Z,36.84
2018-05-27T09:03:23.070Z,36.99
2018-05-27T09:05:50.892Z,37.78
2018-05-27T09:08:18.701Z,37.12
2018-05-27T09:10:46.527Z,34.56
2018-05-27T09:13:14.332Z,33.79
2018-05-27T09:15:42.100Z,34.86
2018-05-27T09:18:09.804Z,36.69
2018-05-27T09:20:37.626Z,35.41
2018-05-27T09:23:05.391Z,33.79
2018-05-27T09:25:33.258Z,32.26
2018-05-27T09:28:00.919Z,32.61
2018-05-27T09:30:28.581Z,31.58
2018-05-27T09:32:56.242Z,31.11
2018-05-27T09:35:23.906Z,30.66
2018-05-27T09:37:51.619Z,28.98
2018-05-27T09:40:19.435Z,31.27
2018-05-27T09:42:47.203Z,30.32
2018-05-27T09:45:15.031Z,31.30
2018-05-27T09:47:42.832Z,32.51
2018-05-27T09:50:10.698Z,33.42
2018-05-27T09:52:38.463Z,34.33
2018-05-27T09:55:06.188Z,32.06
2018-05-27T09:57:33.890Z,31.90
2018-05-27T10:00:01.660Z,33.72
2018-05-27T10:02:29.419Z,33.04
2018-05-27T10:04:57.184Z,31.50
2018-05-27T10:07:24.948Z,32.34
2018-05-27T10:09:52.755Z,32.21
2018-05-27T10:12:20.580Z,31.03
2018-05-27T10:14:48.344Z,30.42
2018-05-27T10:17:16.069Z,30.38
2018-05-27T10:19:43.874Z,31.10
2018-05-27T10:22:11.728Z,32.96
2018-05-27T10:24:39.403Z,31.33
2018-05-27T10:27:07.175Z,31.76
2018-05-27T10:29:34.829Z,28.81
2018-05-27T10:32:02.490Z,29.22
2018-05-27T10:34:30.257Z,27.21
2018-05-27T10:36:57.984Z,27.86
2018-05-27T10:39:25.682Z,25.65
2018-05-27T10:41:53.396Z,28.69
2018-05-27T10:44:21.160Z,31.85
2018-05-27T10:46:48.876Z,31.22
2018-05-27T10:49:16.639Z,31.18
2018-05-27T10:51:44.290Z,31.36
2018-05-27T10:54:11.963Z,30.23
2018-05-27T10:56:39.931Z,30.16
2018-05-27T10:59:07.594Z,29.86
2018-05-27T11:01:35.349Z,29.93
2018-05-27T11:04:03.123Z,29.93
2018-05-27T11:06:30.891Z,31.16
2018-05-27T11:08:58.652Z,30.17
2018-05-27T11:11:26.376Z,29.60
2018-05-27T11:13:54.070Z,30.40
2018-05-27T11:16:22.275Z,30.84
2018-05-27T11:18:50.045Z,32.95
2018-05-27T11:21:17.990Z,34.02
2018-05-27T11:23:45.713Z,32.75
2018-05-27T11:26:13.518Z,33.28
2018-05-27T11:28:41.388Z,34.45
2018-05-27T11:31:09.114Z,35.34
2018-05-27T11:33:36.859Z,34.77
2018-05-27T11:36:04.679Z,34.70
2018-05-27T11:38:32.441Z,34.82
2018-05-27T11:41:00.103Z,34.05
2018-05-27T11:43:27.824Z,33.32
2018-05-27T11:45:55.632Z,31.82
2018-05-27T11:48:23.459Z,30.24
2018-05-27T11:50:51.265Z,30.26
2018-05-27T11:53:19.022Z,31.07
2018-05-27T11:55:46.737Z,30.76
2018-05-27T11:58:14.454Z,31.92
2018-05-27T12:00:42.173Z,33.33
2018-05-27T12:03:09.985Z,32.27
2018-05-27T12:05:37.748Z,31.51
2018-05-27T12:08:05.614Z,30.96
2018-05-27T12:10:33.379Z,30.78
2018-05-27T12:13:01.042Z,29.99
2018-05-27T12:15:28.750Z,30.53
2018-05-27T12:17:56.571Z,28.83
2018-05-27T12:20:24.310Z,29.83
2018-05-27T12:22:52.101Z,30.15
2018-05-27T12:25:19.763Z,29.52
2018-05-27T12:27:47.626Z,29.29
2018-05-27T12:30:15.282Z,30.94
2018-05-27T12:32:43.055Z,31.11
2018-05-27T12:35:10.923Z,30.08
2018-05-27T12:37:38.789Z,30.71
2018-05-27T12:40:06.499Z,29.89
2018-05-27T12:42:34.318Z,29.66
2018-05-27T12:45:02.035Z,30.13
2018-05-27T12:47:29.849Z,29.96
2018-05-27T12:49:57.459Z,31.66
2018-05-27T12:52:25.142Z,29.95
2018-05-27T12:54:52.832Z,31.06
2018-05-27T12:57:20.548Z,30.29
2018-05-27T12:59:48.365Z,29.96
2018-05-27T13:02:16.231Z,31.05
2018-05-27T13:04:44.099Z,32.52
2018-05-27T13:07:12.680Z,32.07
2018-05-27T13:09:40.445Z,31.99
2018-05-27T13:12:08.148Z,32.23
2018-05-27T13:14:35.872Z,31.38
2018-05-27T13:17:03.793Z,31.78
2018-05-27T13:19:31.398Z,29.50
2018-05-27T13:21:59.180Z,30.81
2018-05-27T13:24:26.931Z,29.45
2018-05-27T13:26:55.002Z,29.13
2018-05-27T13:29:22.767Z,29.67
2018-05-27T13:31:50.589Z,31.59
2018-05-27T13:34:18.398Z,30.42
2018-05-27T13:36:46.161Z,29.91
2018-05-27T13:39:13.928Z,30.26
2018-05-27T13:41:41.635Z,29.70
2018-05-27T13:44:09.450Z,29.31
2018-05-27T13:46:37.168Z,29.48
2018-05-27T13:49:04.984Z,29.40
2018-05-27T13:51:32.751Z,29.66
2018-05-27T13:54:00.469Z,29.22
2018-05-27T13:56:28.282Z,29.55
2018-05-27T13:58:57.068Z,29.37
2018-05-27T14:01:24.936Z,29.98
2018-05-27T14:03:52.808Z,29.67
2018-05-27T14:06:20.505Z,30.57
2018-05-27T14:08:48.229Z,30.81
2018-05-27T14:11:15.941Z,29.46
2018-05-27T14:13:43.759Z,30.37
2018-05-27T14:16:11.475Z,31.97
2018-05-27T14:18:39.287Z,32.15
2018-05-27T14:21:07.011Z,31.94
2018-05-27T14:23:34.816Z,33.59
2018-05-27T14:26:02.477Z,32.98
2018-05-27T14:28:30.286Z,32.64
2018-05-27T14:30:58.056Z,31.16
2018-05-27T14:33:25.872Z,31.81
2018-05-27T14:35:53.589Z,33.30
2018-05-27T14:38:21.404Z,33.18
2018-05-27T14:40:49.170Z,34.21
2018-05-27T14:43:16.817Z,35.20
2018-05-27T14:45:44.594Z,37.24
2018-05-27T14:48:12.255Z,35.88
2018-05-27T14:50:40.189Z,35.55
2018-05-27T14:53:08.502Z,35.76
2018-05-27T14:55:36.371Z,34.54
2018-05-27T14:58:04.066Z,32.58
2018-05-27T15:00:31.761Z,30.60
2018-05-27T15:02:59.552Z,29.74
2018-05-27T15:05:27.325Z,33.66
2018-05-27T15:07:55.089Z,36.75
2018-05-27T15:10:22.957Z,37.67
2018-05-27T15:12:50.679Z,38.67
2018-05-27T15:15:18.383Z,39.05
2018-05-27T15:17:46.454Z,39.05
2018-05-27T15:20:14.220Z,39.48
2018-05-27T15:22:42.044Z,38.90
2018-05-27T15:25:10.070Z,39.58
2018-05-27T15:27:37.819Z,39.03
2018-05-27T15:30:05.482Z,38.58
2018-05-27T15:32:33.348Z,38.57
2018-05-27T15:35:01.079Z,38.50
2018-05-27T15:37:28.878Z,38.29
2018-05-27T15:39:56.541Z,38.13
2018-05-27T15:42:24.202Z,38.41
2018-05-27T15:44:51.968Z,38.49
2018-05-27T15:47:19.737Z,38.86
2018-05-27T15:49:47.395Z,39.80
2018-05-27T15:52:15.158Z,40.28
2018-05-27T15:54:42.923Z,40.86
2018-05-27T15:57:10.687Z,40.93
2018-05-27T15:59:38.402Z,41.31
2018-05-27T16:02:06.114Z,41.65
2018-05-27T16:04:33.774Z,43.81
2018-05-27T16:07:01.541Z,46.16
2018-05-27T16:09:29.407Z,44.42
2018-05-27T16:11:57.110Z,44.52
2018-05-27T16:14:25.027Z,45.36
2018-05-27T16:16:52.747Z,45.68
2018-05-27T16:19:20.568Z,45.91
2018-05-27T16:21:48.435Z,45.80
2018-05-27T16:24:16.201Z,46.87
2018-05-27T16:26:43.861Z,46.97
2018-05-27T16:29:11.627Z,46.56
2018-05-27T16:31:39.391Z,47.22
2018-05-27T16:34:07.156Z,51.97
2018-05-27T16:36:34.882Z,50.85
2018-05-27T16:39:02.790Z,51.35
2018-05-27T16:41:30.654Z,53.67
2018-05-27T16:43:58.418Z,52.29
2018-05-27T16:46:26.183Z,51.29
2018-05-27T16:48:53.892Z,54.38
2018-05-27T16:51:21.712Z,56.24
2018-05-27T16:53:49.465Z,55.89
2018-05-27T16:56:17.193Z,56.14
2018-05-27T16:58:44.958Z,55.29
2018-05-27T17:01:12.772Z,54.62
2018-05-27T17:03:40.638Z,54.16
2018-05-27T17:06:08.365Z,53.33
2018-05-27T17:08:36.575Z,52.39
2018-05-27T17:11:04.341Z,51.63
2018-05-27T17:13:32.162Z,50.79
2018-05-27T17:15:59.972Z,50.58
2018-05-27T17:18:27.697Z,50.63
2018-05-27T17:20:55.503Z,51.07
2018-05-27T17:23:23.376Z,52.28
2018-05-27T17:25:51.206Z,51.61
2018-05-27T17:28:19.825Z,50.06
2018-05-27T17:30:47.662Z,51.13
2018-05-27T17:33:15.338Z,51.64
2018-05-27T17:35:43.112Z,50.60
2018-05-27T17:38:10.983Z,52.08
2018-05-27T17:40:38.701Z,52.96
2018-05-27T17:43:06.508Z,58.06
2018-05-27T17:45:34.236Z,56.82
2018-05-27T17:48:14.020Z,55.97
2018-05-27T17:50:41.783Z,56.87
2018-05-27T17:53:09.550Z,54.73
2018-05-27T17:55:37.278Z,54.09
2018-05-27T17:58:04.977Z,53.83
2018-05-27T18:00:32.634Z,54.37
2018-05-27T18:03:00.300Z,53.17
2018-05-27T18:05:28.063Z,53.28
2018-05-27T18:07:57.571Z,53.01
2018-05-27T18:10:25.332Z,52.77
2018-05-27T18:12:53.100Z,52.47
2018-05-27T18:15:20.760Z,52.52
2018-05-27T18:17:48.481Z,52.65
2018-05-27T18:20:16.186Z,52.78
2018-05-27T18:22:43.805Z,52.33
2018-05-27T18:25:11.509Z,52.52
2018-05-27T18:27:39.274Z,52.58
2018-05-27T18:30:06.992Z,52.44
2018-05-27T18:32:34.906Z,53.59
2018-05-27T18:35:02.627Z,52.64
2018-05-27T18:37:30.330Z,51.77
2018-05-27T18:39:57.993Z,51.50
2018-05-27T18:42:25.657Z,51.97
2018-05-27T18:44:53.318Z,52.55
2018-05-27T18:47:21.398Z,52.95
2018-05-27T18:49:49.258Z,53.71
2018-05-27T18:52:16.968Z,53.81
2018-05-27T18:54:44.784Z,54.35
2018-05-27T18:57:12.769Z,54.66
2018-05-27T18:59:40.829Z,54.18
2018-05-27T19:02:08.491Z,54.39
2018-05-27T19:04:36.357Z,53.59
2018-05-27T19:07:04.020Z,52.99
2018-05-27T19:09:31.808Z,52.61
2018-05-27T19:12:00.289Z,52.76
2018-05-27T19:14:29.464Z,52.84
2018-05-27T19:16:57.120Z,52.76
2018-05-27T19:19:24.789Z,53.00
2018-05-27T19:21:52.552Z,52.31
2018-05-27T19:24:20.522Z,52.53
2018-05-27T19:26:48.658Z,52.11
2018-05-27T19:29:16.358Z,52.05
2018-05-27T19:31:44.123Z,51.68
2018-05-27T19:34:11.888Z,51.89
2018-05-27T19:36:39.495Z,51.20
2018-05-27T19:39:07.314Z,51.53
2018-05-27T19:41:35.033Z,51.45
2018-05-27T19:44:02.844Z,51.80
2018-05-27T19:46:30.571Z,50.61
2018-05-27T19:48:58.373Z,49.89
2018-05-27T19:51:26.137Z,49.50
2018-05-27T19:53:53.903Z,51.11
2018-05-27T19:56:21.662Z,51.43
2018-05-27T19:58:49.430Z,50.76
2018-05-27T20:01:17.195Z,49.90
2018-05-27T20:03:44.911Z,49.78
2018-05-27T20:06:12.724Z,48.99
2018-05-27T20:08:40.385Z,48.37
2018-05-27T20:11:08.047Z,48.78
2018-05-27T20:13:35.914Z,47.69
2018-05-27T20:16:04.446Z,48.13
2018-05-27T20:18:32.264Z,48.18
2018-05-27T20:20:59.982Z,48.06
2018-05-27T20:23:27.792Z,48.19
2018-05-27T20:25:55.464Z,48.58
2018-05-27T20:28:23.321Z,48.53
2018-05-27T20:30:51.139Z,48.67
2018-05-27T20:33:18.846Z,48.58
2018-05-27T20:35:46.724Z,49.34
2018-05-27T20:38:14.425Z,49.59
2018-05-27T20:40:42.142Z,49.73
2018-05-27T20:43:09.909Z,50.14
2018-05-27T20:45:37.778Z,51.00
2018-05-27T20:48:05.492Z,51.28
2018-05-27T20:50:33.304Z,50.93
2018-05-27T20:53:00.967Z,50.61
2018-05-27T20:55:28.833Z,50.74
2018-05-27T20:57:56.495Z,51.43
2018-05-27T21:00:24.302Z,51.65
2018-05-27T21:02:52.028Z,51.70
2018-05-27T21:05:19.891Z,51.42
2018-05-27T21:07:47.609Z,52.25
2018-05-27T21:10:15.527Z,52.71
2018-05-27T21:12:43.390Z,52.86
2018-05-27T21:15:11.103Z,53.19
2018-05-27T21:17:38.919Z,53.50
2018-05-27T21:20:06.795Z,53.59
2018-05-27T21:22:34.546Z,53.04
2018-05-27T21:25:02.397Z,52.38
2018-05-27T21:27:30.234Z,52.19
2018-05-27T21:29:58.048Z,52.12
2018-05-27T21:32:25.768Z,51.83
2018-05-27T21:34:53.581Z,51.57
2018-05-27T21:37:21.343Z,52.60
2018-05-27T21:39:49.108Z,53.56
2018-05-27T21:42:16.873Z,54.20
2018-05-27T21:44:44.582Z,55.13
2018-05-27T21:47:12.402Z,55.23
2018-05-27T21:49:40.268Z,55.21
2018-05-27T21:52:07.982Z,55.25
2018-05-27T21:54:35.797Z,55.37
2018-05-27T21:57:03.562Z,55.55
2018-05-27T21:59:31.224Z,55.08
2018-05-27T22:01:58.950Z,55.15
2018-05-27T22:04:26.741Z,55.08
2018-05-27T22:06:54.518Z,55.98
2018-05-27T22:09:22.382Z,55.36
2018-05-27T22:11:50.148Z,55.10
2018-05-27T22:14:17.912Z,54.81
2018-05-27T22:16:45.574Z,55.35
2018-05-27T22:19:13.340Z,55.89
2018-05-27T22:21:41.104Z,55.96
2018-05-27T22:24:08.928Z,56.31
2018-05-27T22:26:36.736Z,56.06
2018-05-27T22:29:04.560Z,55.68
2018-05-27T22:31:32.367Z,55.23
2018-05-27T22:34:00.094Z,55.35
2018-05-27T22:36:27.837Z,55.20
2018-05-27T22:38:55.558Z,55.56
2018-05-27T22:41:23.326Z,55.84
2018-05-27T22:43:51.088Z,56.03
2018-05-27T22:46:18.852Z,56.26
2018-05-27T22:48:46.571Z,55.96
2018-05-27T22:51:14.383Z,56.04
2018-05-27T22:53:42.105Z,55.71
2018-05-27T22:56:09.911Z,55.53
2018-05-27T22:58:37.613Z,55.41
2018-05-27T23:01:05.443Z,55.30
2018-05-27T23:03:33.150Z,55.10
2018-05-27T23:06:00.858Z,55.37
2018-05-27T23:08:28.529Z,55.57
2018-05-27T23:10:56.249Z,54.63
2018-05-27T23:13:23.953Z,54.48
2018-05-27T23:15:52.026Z,53.76
2018-05-27T23:18:19.754Z,54.04
2018-05-27T23:20:47.555Z,53.82
2018-05-27T23:23:15.321Z,53.59
2018-05-27T23:25:43.085Z,53.44
2018-05-27T23:28:10.745Z,53.40
2018-05-27T23:30:38.409Z,53.15
2018-05-27T23:33:06.072Z,53.33
2018-05-27T23:35:33.938Z,53.70
2018-05-27T23:38:01.702Z,56.26
2018-05-27T23:40:29.364Z,56.00
2018-05-27T23:42:57.025Z,56.83
2018-05-27T23:45:24.710Z,57.63
2018-05-27T23:47:52.555Z,57.87
2018-05-27T23:50:20.423Z,58.06
2018-05-27T23:52:48.392Z,58.06
2018-05-27T23:55:16.203Z,57.96
2018-05-27T23:57:43.920Z,57.56
